Time;durP1;ratioP1;P1;durP2;ratioP2;P2;SDS_P1;SDS_P2;PMS_P1;PMS_P2;Temp;Humidity;BMP_temperature;BMP_pressure;BME280_temperature;BME280_humidity;BME280_pressure;Samples;Min_cycle;Max_cycle;Signal;HPM_P1;HPM_P2
2023/05/21 00:01:17;;;;;;;6.30;4.20;;;;;;;16.40;53.55;100883.31;103303;1252;137853;-65
2023/05/21 00:03:45;;;;;;;7.40;4.10;;;;;;;16.38;53.87;100883.09;103375;1252;96433;-66
2023/05/21 00:06:14;;;;;;;8.70;4.40;;;;;;;16.34;53.91;100878.85;104615;1252;137473;-66
2023/05/21 00:08:41;;;;;;;8.10;4.40;;;;;;;16.29;54.16;100879.27;103491;1257;96323;-65
2023/05/21 00:11:09;;;;;;;8.70;4.50;;;;;;;16.24;54.11;100875.98;103407;1254;109853;-66
2023/05/21 00:13:37;;;;;;;5.90;4.40;;;;;;;16.20;54.31;100878.80;103219;1253;137463;-66
2023/05/21 00:16:05;;;;;;;8.50;4.30;;;;;;;16.17;54.39;100878.23;103430;1252;96439;-66
2023/05/21 00:18:33;;;;;;;8.60;4.30;;;;;;;16.13;54.48;100877.71;103661;1252;137598;-66
2023/05/21 00:21:00;;;;;;;7.40;4.10;;;;;;;16.08;54.50;100877.73;104085;1253;96457;-66
2023/05/21 00:23:29;;;;;;;8.30;4.00;;;;;;;16.04;54.55;100876.02;103273;1252;138176;-66
2023/05/21 00:25:56;;;;;;;8.60;4.30;;;;;;;15.99;54.65;100876.41;103519;1256;107454;-66
2023/05/21 00:28:23;;;;;;;9.10;4.00;;;;;;;15.93;54.76;100876.66;103260;1258;96538;-65
2023/05/21 00:30:51;;;;;;;8.00;4.10;;;;;;;15.89;54.70;100873.34;103292;1256;137459;-66
2023/05/21 00:33:20;;;;;;;6.90;4.40;;;;;;;15.86;54.62;100874.01;103398;1256;96636;-65
2023/05/21 00:35:47;;;;;;;5.30;4.20;;;;;;;15.84;54.76;100876.95;103282;1253;137736;-65
2023/05/21 00:38:16;;;;;;;5.40;3.90;;;;;;;15.79;54.77;100882.73;104103;1252;106835;-66
2023/05/21 00:40:44;;;;;;;11.00;4.20;;;;;;;15.75;54.87;100883.80;103458;1257;96548;-66
2023/05/21 00:43:13;;;;;;;8.40;4.50;;;;;;;15.70;54.87;100885.20;103324;1252;137727;-65
2023/05/21 00:45:43;;;;;;;7.50;4.20;;;;;;;15.67;55.11;100889.20;103366;1252;96461;-66
2023/05/21 00:48:11;;;;;;;9.60;4.10;;;;;;;15.64;55.16;100884.77;103223;1252;137690;-65
2023/05/21 00:50:39;;;;;;;7.20;4.30;;;;;;;15.61;55.19;100885.27;103439;1252;107598;-66
2023/05/21 00:53:08;;;;;;;7.60;4.70;;;;;;;15.56;55.00;100890.16;103711;1252;96401;-66
2023/05/21 00:55:36;;;;;;;7.40;4.20;;;;;;;15.52;55.10;100888.77;103520;1252;137225;-66
2023/05/21 00:58:04;;;;;;;6.80;3.90;;;;;;;15.48;55.26;100889.64;103459;1252;97078;-66
2023/05/21 01:00:34;;;;;;;7.30;3.90;;;;;;;15.45;55.21;100888.55;103260;1254;137526;-65
2023/05/21 01:03:01;;;;;;;6.90;4.30;;;;;;;15.43;55.32;100887.05;103527;1252;108031;-65
2023/05/21 01:05:30;;;;;;;5.00;4.00;;;;;;;15.41;55.11;100891.69;103267;1254;137858;-66
2023/05/21 01:07:58;;;;;;;8.30;4.30;;;;;;;15.39;55.05;100891.77;103380;1252;107184;-65
2023/05/21 01:10:27;;;;;;;9.90;3.90;;;;;;;15.38;55.25;100887.40;103315;1252;96432;-65
2023/05/21 01:12:58;;;;;;;10.80;4.30;;;;;;;15.35;55.25;100881.95;103378;1252;137558;-65
2023/05/21 01:15:26;;;;;;;8.60;4.00;;;;;;;15.32;55.36;100886.11;103818;1252;107585;-67
2023/05/21 01:17:54;;;;;;;6.60;3.60;;;;;;;15.30;55.22;100887.27;103309;1256;137796;-67
2023/05/21 01:20:23;;;;;;;6.60;4.30;;;;;;;15.27;55.13;100884.94;103537;1252;109199;-64
2023/05/21 01:22:53;;;;;;;7.10;3.70;;;;;;;15.26;54.96;100885.14;103604;1255;96486;-65
2023/05/21 01:25:23;;;;;;;9.10;4.00;;;;;;;15.24;54.77;100881.70;103598;1252;137402;-65
2023/05/21 01:27:50;;;;;;;8.60;3.60;;;;;;;15.22;54.51;100875.48;103732;1254;106748;-64
2023/05/21 01:30:21;;;;;;;7.80;3.70;;;;;;;15.21;54.52;100882.36;103285;1256;137777;-67
2023/05/21 01:32:53;;;;;;;5.60;3.80;;;;;;;15.21;54.20;100884.45;103903;1256;107780;-67
2023/05/21 01:35:23;;;;;;;9.90;3.80;;;;;;;15.21;54.07;100884.14;103403;1252;96410;-67
2023/05/21 01:37:55;;;;;;;7.20;3.50;;;;;;;15.20;53.94;100880.48;103305;1252;111107;-64
2023/05/21 01:40:27;;;;;;;4.60;3.40;;;;;;;15.20;53.81;100878.90;103346;1252;108213;-65
2023/05/21 01:42:55;;;;;;;7.40;3.50;;;;;;;15.20;53.71;100878.73;103315;1252;137590;-65
2023/05/21 01:45:25;;;;;;;6.40;3.60;;;;;;;15.19;53.47;100875.95;103372;1257;107272;-65
2023/05/21 01:47:55;;;;;;;8.70;3.60;;;;;;;15.19;53.20;100873.88;103640;1255;138086;-66
2023/05/21 01:50:24;;;;;;;8.20;3.20;;;;;;;15.18;53.17;100878.09;103484;1252;110340;-65
2023/05/21 01:52:53;;;;;;;6.60;3.60;;;;;;;15.18;53.13;100877.25;103448;1252;107985;-66
2023/05/21 01:55:24;;;;;;;8.60;5.10;;;;;;;15.18;53.13;100875.85;103386;1256;137671;-66
2023/05/21 01:57:52;;;;;;;8.60;3.50;;;;;;;15.17;53.14;100875.89;103409;1257;108488;-66
2023/05/21 02:03:15;;;;;;;6.40;3.30;;;;;;;15.14;52.97;100873.56;102854;1256;110432;-64
2023/05/21 02:05:42;;;;;;;6.50;3.70;;;;;;;15.12;52.99;100874.50;103299;1259;138428;-65
2023/05/21 02:08:10;;;;;;;8.00;4.00;;;;;;;15.10;53.24;100876.85;102932;1259;96762;-67
2023/05/21 02:10:40;;;;;;;5.30;3.90;;;;;;;15.08;53.58;100873.42;102931;1261;108042;-67
2023/05/21 02:13:07;;;;;;;10.30;4.00;;;;;;;15.06;53.54;100871.21;102944;1259;138005;-67
2023/05/21 02:15:35;;;;;;;7.60;3.90;;;;;;;15.03;53.70;100871.71;103167;1257;109681;-66
2023/05/21 02:18:03;;;;;;;6.20;3.60;;;;;;;14.99;53.83;100870.66;103788;1259;137835;-67
2023/05/21 02:20:30;;;;;;;4.60;3.40;;;;;;;14.98;53.67;100874.90;103190;1257;96443;-66
2023/05/21 02:22:58;;;;;;;11.90;3.30;;;;;;;14.94;53.41;100870.02;103161;1258;107759;-67
2023/05/21 02:25:25;;;;;;;6.60;3.60;;;;;;;14.89;53.35;100867.19;103050;1261;137851;-67
2023/05/21 02:27:52;;;;;;;6.00;3.30;;;;;;;14.87;53.49;100868.16;103150;1260;110565;-66
2023/05/21 02:30:20;;;;;;;6.90;3.30;;;;;;;14.83;53.41;100870.42;102805;1259;138250;-66
2023/05/21 02:32:47;;;;;;;7.10;3.70;;;;;;;14.79;53.18;100868.13;103057;1259;96355;-66
2023/05/21 02:35:15;;;;;;;5.50;3.60;;;;;;;14.76;53.14;100865.80;103028;1258;108673;-66
2023/05/21 02:37:43;;;;;;;9.50;4.00;;;;;;;14.74;53.25;100865.53;102981;1257;137563;-66
2023/05/21 02:40:12;;;;;;;8.30;3.50;;;;;;;14.73;53.20;100866.45;103628;1258;110382;-66
2023/05/21 02:42:40;;;;;;;9.10;3.10;;;;;;;14.73;53.08;100863.48;103334;1259;138171;-66
2023/05/21 02:45:11;;;;;;;8.30;3.40;;;;;;;14.73;53.17;100864.19;103052;1259;96698;-67
2023/05/21 02:47:40;;;;;;;6.70;3.60;;;;;;;14.72;53.16;100862.63;103010;1259;137640;-67
2023/05/21 02:50:10;;;;;;;8.40;3.50;;;;;;;14.72;53.09;100862.80;103307;1261;96463;-66
2023/05/21 02:52:44;;;;;;;7.80;3.50;;;;;;;14.72;53.08;100864.20;103085;1262;109807;-66
2023/05/21 02:55:12;;;;;;;6.80;3.50;;;;;;;14.71;53.15;100861.44;103012;1258;137687;-67
2023/05/21 02:57:39;;;;;;;5.50;3.30;;;;;;;14.72;53.13;100866.83;103862;1261;96438;-66
2023/05/21 03:00:09;;;;;;;7.90;3.50;;;;;;;14.72;53.16;100866.83;102861;1257;137509;-66
2023/05/21 03:02:37;;;;;;;8.00;3.70;;;;;;;14.73;53.23;100865.77;104162;1257;94604;-66
2023/05/21 03:05:05;;;;;;;5.70;3.50;;;;;;;14.74;53.06;100864.99;102941;1263;110821;-66
2023/05/21 03:07:33;;;;;;;7.00;3.40;;;;;;;14.75;53.08;100867.09;103582;1261;138147;-66
2023/05/21 03:10:04;;;;;;;6.90;3.40;;;;;;;14.76;53.03;100866.33;103506;1259;96587;-67
2023/05/21 03:12:31;;;;;;;7.20;3.20;;;;;;;14.77;53.03;100862.95;103058;1261;137880;-66
2023/05/21 03:14:58;;;;;;;10.70;3.60;;;;;;;14.78;53.11;100859.58;102967;1263;96773;-66
2023/05/21 03:17:26;;;;;;;7.50;3.60;;;;;;;14.81;53.04;100861.59;102847;1259;137846;-66
2023/05/21 03:19:54;;;;;;;6.20;3.60;;;;;;;14.82;53.05;100853.46;102925;1259;108347;-66
2023/05/21 03:22:22;;;;;;;6.90;3.50;;;;;;;14.85;53.21;100850.91;103307;1263;96444;-66
2023/05/21 03:24:50;;;;;;;7.10;3.70;;;;;;;14.85;53.16;100848.80;102806;1263;137486;-66
2023/05/21 03:27:17;;;;;;;5.10;3.40;;;;;;;14.85;53.22;100846.86;102969;1264;96536;-66
2023/05/21 03:29:46;;;;;;;6.10;3.50;;;;;;;14.87;53.62;100845.41;102911;1263;137620;-66
2023/05/21 03:32:14;;;;;;;6.60;3.70;;;;;;;14.89;53.60;100847.42;103978;1262;108125;-66
2023/05/21 03:34:50;;;;;;;11.40;5.10;;;;;;;14.89;53.65;100846.34;103439;1259;96641;-66
2023/05/21 03:37:17;;;;;;;9.70;5.30;;;;;;;14.91;54.00;100849.11;102851;1259;138075;-66
2023/05/21 03:39:45;;;;;;;5.90;4.10;;;;;;;14.92;54.10;100845.05;102983;1263;96497;-66
2023/05/21 03:42:13;;;;;;;7.50;4.00;;;;;;;14.93;54.44;100843.24;102793;1259;137571;-67
2023/05/21 03:44:47;;;;;;;8.00;4.50;;;;;;;14.92;54.65;100841.88;103791;1263;107104;-67
2023/05/21 03:47:34;;;;;;;5.90;4.40;;;;;;;14.94;54.87;100837.95;102879;1259;138267;-67
2023/05/21 03:50:08;;;;;;;3.90;3.50;;;;;;;14.96;54.92;100838.92;103902;1263;108684;-67
2023/05/21 03:52:44;;;;;;;6.60;3.50;;;;;;;14.99;55.11;100838.08;103483;1263;96585;-67
2023/05/21 03:55:14;;;;;;;5.40;3.60;;;;;;;15.04;55.18;100841.02;103438;1263;137762;-66
2023/05/21 03:57:42;;;;;;;7.20;4.00;;;;;;;15.08;55.20;100842.79;102928;1259;107584;-66
2023/05/21 04:00:11;;;;;;;8.80;3.60;;;;;;;15.12;55.30;100848.25;102811;1261;138081;-65
2023/05/21 04:02:46;;;;;;;5.70;4.00;;;;;;;15.16;55.29;100842.65;104301;1260;107282;-66
2023/05/21 04:05:16;;;;;;;10.00;4.30;;;;;;;15.21;55.14;100846.66;104081;1261;94283;-66
2023/05/21 04:07:45;;;;;;;8.30;4.20;;;;;;;15.26;55.33;100847.66;103220;1261;138396;-67
2023/05/21 04:10:13;;;;;;;9.60;4.30;;;;;;;15.32;55.39;100849.52;102889;1264;107950;-66
2023/05/21 04:12:40;;;;;;;7.90;3.90;;;;;;;15.37;55.20;100852.08;103015;1263;137730;-66
2023/05/21 04:15:10;;;;;;;10.00;4.30;;;;;;;15.42;55.26;100850.97;102916;1263;108569;-66
2023/05/21 04:17:38;;;;;;;7.20;4.10;;;;;;;15.49;55.06;100852.29;103080;1263;139924;-67
2023/05/21 04:20:08;;;;;;;6.10;3.80;;;;;;;15.55;55.22;100852.16;103008;1259;110344;-65
2023/05/21 04:22:35;;;;;;;6.50;4.20;;;;;;;15.60;55.13;100850.40;104312;1261;106907;-67
2023/05/21 04:25:02;;;;;;;8.30;4.10;;;;;;;15.67;55.09;100846.28;102885;1264;138321;-66
2023/05/21 04:27:33;;;;;;;6.50;3.90;;;;;;;15.74;55.08;100842.98;104230;1260;106985;-67
2023/05/21 04:30:02;;;;;;;6.00;3.80;;;;;;;15.80;54.97;100843.94;102839;1263;137935;-66
2023/05/21 04:32:33;;;;;;;6.80;4.10;;;;;;;15.88;54.81;100839.59;103807;1261;109143;-66
2023/05/21 04:35:01;;;;;;;7.30;4.20;;;;;;;15.95;54.72;100838.54;103263;1263;107997;-66
2023/05/21 04:37:30;;;;;;;6.10;4.40;;;;;;;16.02;54.56;100835.61;104174;1261;137665;-66
2023/05/21 04:39:58;;;;;;;6.70;4.10;;;;;;;16.10;54.42;100832.78;103681;1260;107846;-67
2023/05/21 04:42:25;;;;;;;7.90;4.00;;;;;;;16.20;54.26;100830.21;102844;1261;138199;-66
2023/05/21 04:44:54;;;;;;;7.20;3.40;;;;;;;16.28;54.08;100828.41;104322;1261;110397;-67
2023/05/21 04:47:21;;;;;;;5.60;3.80;;;;;;;16.37;53.96;100829.23;104274;1263;108346;-67
2023/05/21 04:49:50;;;;;;;5.30;3.80;;;;;;;16.47;53.57;100827.73;104014;1260;96551;-66
2023/05/21 04:52:17;;;;;;;5.70;3.70;;;;;;;16.57;53.49;100826.17;104347;1259;107428;-66
2023/05/21 04:54:44;;;;;;;5.60;3.70;;;;;;;16.68;53.13;100825.13;103698;1260;137657;-67
2023/05/21 04:57:12;;;;;;;5.40;3.80;;;;;;;16.80;52.87;100825.96;102990;1261;111027;-67
2023/05/21 04:59:40;;;;;;;5.80;3.60;;;;;;;16.93;52.62;100825.52;104185;1263;137831;-67
2023/05/21 05:02:07;;;;;;;4.20;3.30;;;;;;;17.09;52.51;100822.45;104320;1259;94764;-67
2023/05/21 05:04:35;;;;;;;5.40;3.30;;;;;;;17.25;52.27;100827.25;103127;1262;106902;-67
2023/05/21 05:07:02;;;;;;;5.70;3.20;;;;;;;17.43;51.68;100828.08;102768;1263;137625;-67
2023/05/21 05:09:30;;;;;;;4.70;3.30;;;;;;;17.59;51.13;100824.44;102841;1263;109478;-67
2023/05/21 05:11:57;;;;;;;5.10;3.50;;;;;;;17.75;50.62;100825.71;102708;1264;138064;-67
2023/05/21 05:14:25;;;;;;;7.50;3.20;;;;;;;17.89;50.19;100823.04;102904;1272;96554;-67
2023/05/21 05:16:53;;;;;;;4.20;3.40;;;;;;;18.06;49.68;100824.45;102899;1263;108005;-67
2023/05/21 05:19:20;;;;;;;6.10;3.30;;;;;;;18.21;49.34;100822.04;102771;1259;137962;-67
2023/05/21 05:21:48;;;;;;;6.20;2.80;;;;;;;18.40;48.76;100821.65;102863;1261;110076;-67
2023/05/21 05:24:15;;;;;;;5.60;3.20;;;;;;;18.65;48.85;100825.38;102800;1262;138003;-67
2023/05/21 05:26:43;;;;;;;6.30;3.40;;;;;;;19.05;48.42;100822.96;102955;1263;96483;-67
2023/05/21 05:29:10;;;;;;;6.20;3.00;;;;;;;19.88;48.28;100817.23;102855;1264;107956;-67
2023/05/21 05:31:37;;;;;;;11.10;2.90;;;;;;;21.61;46.52;100815.26;102794;1263;137946;-67
2023/05/21 05:34:05;;;;;;;10.50;2.60;;;;;;;23.64;44.61;100811.08;102753;1260;109103;-67
2023/05/21 05:36:32;;;;;;;6.30;2.90;;;;;;;25.66;42.47;100803.34;102876;1263;137746;-66
2023/05/21 05:39:01;;;;;;;5.20;2.70;;;;;;;27.61;39.86;100794.55;103007;1260;96466;-66
2023/05/21 05:41:29;;;;;;;6.70;2.90;;;;;;;29.38;37.75;100791.52;102859;1263;137773;-66
2023/05/21 05:43:56;;;;;;;4.50;2.40;;;;;;;31.07;35.79;100784.02;104291;1260;94467;-66
2023/05/21 05:46:26;;;;;;;4.50;2.60;;;;;;;32.57;33.26;100782.08;104181;1263;110119;-66
2023/05/21 05:48:53;;;;;;;5.20;2.60;;;;;;;33.79;31.86;100777.49;102853;1261;138035;-67
2023/05/21 05:51:20;;;;;;;8.00;2.50;;;;;;;34.93;30.33;100774.34;102999;1260;96670;-65
2023/05/21 05:53:47;;;;;;;2.80;2.30;;;;;;;35.92;29.15;100777.11;102868;1261;137791;-66
2023/05/21 05:56:15;;;;;;;3.70;2.50;;;;;;;36.89;27.99;100779.50;104258;1261;94559;-66
2023/05/21 05:58:43;;;;;;;5.10;2.70;;;;;;;37.86;26.78;100770.80;104308;1260;101179;-66
2023/05/21 06:01:13;;;;;;;4.70;2.40;;;;;;;38.74;25.72;100767.38;104205;1259;140787;-65
2023/05/21 06:03:40;;;;;;;7.00;2.20;;;;;;;39.43;25.01;100770.69;103861;1260;96430;-68
2023/05/21 06:06:10;;;;;;;7.40;2.60;;;;;;;40.22;24.07;100770.96;102812;1263;137419;-67
2023/05/21 06:08:39;;;;;;;6.10;2.30;;;;;;;40.91;23.23;100771.00;103499;1263;95194;-68
2023/05/21 06:11:06;;;;;;;6.30;2.40;;;;;;;41.59;22.49;100766.85;102874;1263;101066;-68
2023/05/21 06:13:33;;;;;;;4.30;2.40;;;;;;;42.27;21.72;100764.33;102700;1264;137859;-68
2023/05/21 06:16:01;;;;;;;4.10;2.00;;;;;;;42.81;20.97;100762.41;102870;1263;96605;-67
2023/05/21 06:18:28;;;;;;;6.20;2.00;;;;;;;43.16;20.16;100764.52;102728;1258;137612;-67
2023/05/21 06:20:56;;;;;;;6.10;2.00;;;;;;;43.53;19.40;100771.16;102866;1263;96617;-67
2023/05/21 06:23:24;;;;;;;5.10;2.20;;;;;;;43.78;18.79;100769.74;102829;1260;101168;-67
2023/05/21 06:25:51;;;;;;;3.10;2.40;;;;;;;44.02;18.63;100770.64;102905;1261;101094;-66
2023/05/21 06:28:19;;;;;;;4.20;2.00;;;;;;;44.17;18.40;100772.48;103180;1263;96554;-67
2023/05/21 06:30:47;;;;;;;3.80;2.20;;;;;;;44.31;18.13;100771.19;103207;1261;137535;-68
2023/05/21 06:33:14;;;;;;;4.70;2.00;;;;;;;44.46;18.00;100765.96;102818;1261;96551;-67
2023/05/21 06:35:43;;;;;;;8.60;2.10;;;;;;;44.77;17.70;100768.08;102747;1263;137606;-67
2023/05/21 06:38:10;;;;;;;7.80;2.60;;;;;;;44.99;17.46;100768.30;102787;1263;100278;-67
2023/05/21 06:40:37;;;;;;;3.70;1.80;;;;;;;45.00;17.16;100765.72;102815;1261;96478;-66
2023/05/21 06:43:05;;;;;;;3.80;2.10;;;;;;;45.10;16.96;100768.34;102717;1257;137486;-66
2023/05/21 06:45:58;;;;;;;4.00;2.10;;;;;;;45.25;16.53;100766.23;102773;1264;97222;-69
2023/05/21 06:48:34;;;;;;;4.30;2.20;;;;;;;45.50;16.32;100762.52;102752;1263;137477;-68
2023/05/21 06:51:02;;;;;;;2.80;2.10;;;;;;;45.61;15.99;100764.78;102747;1259;100462;-68
2023/05/21 06:53:29;;;;;;;5.10;2.10;;;;;;;45.78;15.65;100758.77;102754;1261;138028;-67
2023/05/21 06:55:57;;;;;;;5.40;2.70;;;;;;;45.89;15.05;100753.05;102858;1263;99136;-65
2023/05/21 06:58:34;;;;;;;6.70;2.50;;;;;;;45.95;15.16;100755.62;102889;1261;96565;-65
2023/05/21 07:01:03;;;;;;;3.30;1.90;;;;;;;45.88;14.86;100753.27;102821;1261;137562;-64
2023/05/21 07:03:30;;;;;;;5.00;1.90;;;;;;;45.74;15.09;100754.72;102818;1260;100510;-68
2023/05/21 07:05:59;;;;;;;6.30;2.10;;;;;;;45.72;15.20;100752.95;103769;1260;137834;-67
2023/05/21 07:08:26;;;;;;;3.80;2.00;;;;;;;45.70;15.13;100748.76;102829;1259;100061;-65
2023/05/21 07:10:55;;;;;;;4.40;2.00;;;;;;;45.69;15.15;100746.94;103307;1260;96449;-64
2023/05/21 07:13:22;;;;;;;5.20;2.00;;;;;;;45.72;15.13;100746.23;102815;1261;137623;-64
2023/05/21 07:15:50;;;;;;;3.80;1.90;;;;;;;45.73;15.09;100747.16;102847;1261;99855;-64
2023/05/21 07:18:17;;;;;;;6.10;2.00;;;;;;;45.78;15.02;100750.34;102792;1258;137743;-63
2023/05/21 07:20:44;;;;;;;4.60;2.30;;;;;;;45.82;14.80;100749.23;102915;1259;100162;-63
2023/05/21 07:23:13;;;;;;;6.00;2.00;;;;;;;45.67;14.77;100750.73;102800;1258;97083;-64
2023/05/21 07:25:41;;;;;;;3.20;1.70;;;;;;;45.77;14.52;100745.20;102727;1261;137404;-64
2023/05/21 07:28:08;;;;;;;3.70;1.90;;;;;;;45.86;14.56;100744.67;102974;1264;99443;-64
2023/05/21 07:30:36;;;;;;;6.80;2.10;;;;;;;45.96;14.74;100746.42;102729;1262;137478;-65
2023/05/21 07:33:05;;;;;;;4.10;1.90;;;;;;;46.10;14.47;100747.06;102821;1263;99430;-65
2023/05/21 07:35:34;;;;;;;5.80;2.00;;;;;;;46.15;14.15;100749.35;102736;1261;137756;-61
2023/05/21 07:38:02;;;;;;;44.80;23.30;;;;;;;46.13;14.01;100746.15;103151;1261;101239;-64
2023/05/21 07:40:30;;;;;;;61.60;34.30;;;;;;;46.02;13.89;100744.95;102859;1263;100266;-65
2023/05/21 07:42:57;;;;;;;46.80;23.00;;;;;;;45.84;13.93;100742.41;102705;1259;138179;-64
2023/05/21 07:45:27;;;;;;;36.90;21.00;;;;;;;45.64;13.69;100738.02;102817;1260;100846;-65
2023/05/21 07:47:54;;;;;;;10.10;5.30;;;;;;;45.58;13.88;100739.04;102715;1260;139032;-65
2023/05/21 07:50:22;;;;;;;13.00;4.20;;;;;;;45.45;13.68;100737.27;102851;1259;102972;-65
2023/05/21 07:52:49;;;;;;;5.30;2.00;;;;;;;45.18;13.63;100737.70;102911;1260;99971;-64
2023/05/21 07:55:17;;;;;;;5.70;2.70;;;;;;;44.99;13.65;100733.23;102650;1260;137496;-65
2023/05/21 07:57:45;;;;;;;4.40;2.20;;;;;;;44.65;13.38;100728.78;103589;1261;100973;-66
2023/05/21 08:00:16;;;;;;;6.30;2.40;;;;;;;44.13;13.17;100731.56;102631;1261;224244;-65
2023/05/21 08:02:48;;;;;;;10.40;4.10;;;;;;;43.73;13.99;100731.50;102982;1262;102549;-65
2023/05/21 08:05:16;;;;;;;6.30;3.20;;;;;;;43.59;14.30;100728.44;102964;1260;101049;-65
2023/05/21 08:07:43;;;;;;;4.60;2.30;;;;;;;43.32;14.42;100721.20;104144;1263;137883;-65
2023/05/21 08:10:11;;;;;;;5.40;2.20;;;;;;;43.18;14.62;100727.10;103222;1260;99064;-66
2023/05/21 08:12:39;;;;;;;23.30;2.50;;;;;;;43.16;14.76;100723.45;103225;1261;137977;-63
2023/05/21 08:15:08;;;;;;;4.50;1.90;;;;;;;43.13;14.83;100720.45;102768;1261;103524;-64
2023/05/21 08:17:39;;;;;;;16.40;2.50;;;;;;;42.89;14.77;100715.58;102829;1259;138336;-65
2023/05/21 08:20:09;;;;;;;8.30;1.90;;;;;;;42.67;14.90;100714.83;104126;1258;94343;-64
2023/05/21 08:22:36;;;;;;;6.80;1.90;;;;;;;42.50;14.76;100709.50;102981;1263;99056;-64
2023/05/21 08:25:04;;;;;;;5.40;1.60;;;;;;;42.02;14.05;100713.54;102870;1259;137624;-64
2023/05/21 08:27:32;;;;;;;4.90;1.90;;;;;;;41.76;13.88;100709.18;103659;1259;102330;-64
2023/05/21 08:29:59;;;;;;;5.00;1.60;;;;;;;41.42;14.09;100709.82;102928;1259;138183;-64
2023/05/21 08:32:27;;;;;;;5.00;1.70;;;;;;;41.10;14.50;100708.59;103045;1259;96360;-64
2023/05/21 08:34:54;;;;;;;6.70;1.80;;;;;;;40.78;14.59;100708.05;102813;1263;99748;-64
2023/05/21 08:37:36;;;;;;;16.10;1.90;;;;;;;40.55;14.18;100710.09;102862;1263;137793;-64
2023/05/21 08:40:31;;;;;;;6.40;1.70;;;;;;;39.92;13.50;100708.48;103279;1263;102297;-64
2023/05/21 08:42:58;;;;;;;3.00;1.50;;;;;;;39.09;13.48;100707.22;102846;1259;137635;-64
2023/05/21 08:45:39;;;;;;;4.50;1.80;;;;;;;38.60;14.55;100709.38;103060;1260;96446;-64
2023/05/21 08:48:09;;;;;;;4.70;1.80;;;;;;;38.50;15.21;100709.30;103218;1259;138286;-63
2023/05/21 08:50:37;;;;;;;4.90;1.70;;;;;;;38.39;14.65;100709.41;103100;1259;96479;-63
2023/05/21 08:53:10;;;;;;;6.40;1.70;;;;;;;37.84;14.47;100711.91;103073;1261;102999;-64
2023/05/21 08:55:56;;;;;;;3.80;1.60;;;;;;;36.92;14.74;100719.40;103188;1259;100034;-65
2023/05/21 08:58:29;;;;;;;;;;;;;;;36.04;15.05;100719.55;103026;1259;96806;-64
2023/05/21 09:00:57;;;;;;;4.60;1.50;;;;;;;35.43;15.20;100720.95;102763;1260;124319;-64
2023/05/21 09:03:25;;;;;;;5.20;2.10;;;;;;;34.87;15.94;100715.45;103207;1258;96444;-65
2023/05/21 09:05:53;;;;;;;2.80;1.40;;;;;;;34.51;15.91;100715.77;102858;1263;137959;-64
2023/05/21 09:08:27;;;;;;;2.80;1.60;;;;;;;33.95;16.17;100716.26;103010;1259;99353;-64
2023/05/21 09:10:58;;;;;;;2.30;1.60;;;;;;;33.21;16.47;100720.57;102958;1263;96523;-64
2023/05/21 09:13:31;;;;;;;3.10;1.70;;;;;;;32.67;16.79;100728.65;103339;1263;137462;-64
2023/05/21 09:15:59;;;;;;;3.80;1.70;;;;;;;32.41;17.13;100724.03;102894;1260;96492;-65
2023/05/21 09:18:27;;;;;;;5.70;1.70;;;;;;;32.50;17.79;100721.13;102936;1259;137727;-64
2023/05/21 09:21:25;;;;;;;6.60;1.90;;;;;;;32.90;18.39;100717.54;102890;1259;101065;-63
2023/05/21 09:24:00;;;;;;;6.50;1.80;;;;;;;33.27;18.22;100711.83;102881;1264;137879;-66
2023/05/21 09:26:28;;;;;;;4.50;2.00;;;;;;;33.62;18.38;100703.88;102941;1263;110830;-65
2023/05/21 09:29:01;;;;;;;5.20;2.50;;;;;;;33.73;17.68;100711.20;102996;1263;96472;-65
2023/05/21 09:31:29;;;;;;;5.00;1.40;;;;;;;33.56;17.52;100708.42;102785;1259;137876;-64
2023/05/21 09:33:56;;;;;;;7.30;1.60;;;;;;;33.27;16.70;100704.08;103754;1261;100269;-65
2023/05/21 09:36:24;;;;;;;3.30;1.70;;;;;;;32.97;17.05;100708.94;102905;1263;137885;-64
2023/05/21 09:38:53;;;;;;;3.70;1.50;;;;;;;32.68;17.39;100701.72;103029;1259;100957;-64
2023/05/21 09:41:21;;;;;;;7.40;2.00;;;;;;;32.24;17.72;100707.11;103098;1259;96453;-64
2023/05/21 09:43:49;;;;;;;4.70;1.70;;;;;;;31.82;18.29;100709.03;103809;1258;137435;-64
2023/05/21 09:46:20;;;;;;;5.60;1.70;;;;;;;31.60;18.49;100707.85;103291;1257;108489;-63
2023/05/21 09:48:48;;;;;;;8.10;1.80;;;;;;;31.45;18.95;100698.58;103402;1257;137808;-63
2023/05/21 09:51:18;;;;;;;5.60;1.70;;;;;;;31.62;19.05;100707.60;103002;1259;107983;-65
2023/05/21 09:53:53;;;;;;;7.90;2.20;;;;;;;31.38;18.99;100702.80;103321;1261;137950;-65
2023/05/21 09:56:23;;;;;;;5.00;2.20;;;;;;;31.08;19.19;100706.64;103127;1258;109517;-65
2023/05/21 09:58:54;;;;;;;4.70;2.10;;;;;;;30.90;19.17;100705.99;103027;1259;106916;-65
2023/05/21 10:01:23;;;;;;;7.90;2.30;;;;;;;30.74;19.54;100702.42;103098;1262;137696;-64
2023/05/21 10:03:55;;;;;;;11.40;2.10;;;;;;;30.74;19.83;100702.34;103909;1258;108469;-65
2023/05/21 10:06:24;;;;;;;6.40;2.10;;;;;;;30.62;19.62;100698.46;103161;1260;137835;-65
2023/05/21 10:08:54;;;;;;;5.60;2.10;;;;;;;30.49;19.79;100697.89;102964;1263;110052;-63
2023/05/21 10:11:25;;;;;;;5.70;2.10;;;;;;;30.43;20.17;100696.98;103011;1259;106774;-61
2023/05/21 10:13:57;;;;;;;6.30;2.20;;;;;;;30.54;20.45;100694.10;104252;1258;137886;-61
2023/05/21 10:16:25;;;;;;;2.50;1.90;;;;;;;30.85;20.85;100691.06;103203;1259;107132;-66
2023/05/21 10:18:54;;;;;;;7.00;2.10;;;;;;;30.99;19.89;100689.66;102793;1262;137633;-62
2023/05/21 10:21:23;;;;;;;6.60;2.30;;;;;;;30.74;20.46;100696.66;103050;1259;111183;-62
2023/05/21 10:23:51;;;;;;;4.80;2.20;;;;;;;30.59;20.72;100689.95;102902;1259;137832;-64
2023/05/21 10:26:20;;;;;;;4.20;2.00;;;;;;;30.54;21.10;100686.37;103037;1259;96498;-62
2023/05/21 10:28:48;;;;;;;4.40;2.10;;;;;;;30.70;21.43;100682.52;103410;1259;108957;-61
2023/05/21 10:31:16;;;;;;;6.40;2.00;;;;;;;30.82;21.61;100682.41;103129;1258;137839;-62
2023/05/21 10:33:44;;;;;;;7.90;2.10;;;;;;;30.88;21.60;100680.20;103401;1259;111023;-64
2023/05/21 10:36:12;;;;;;;3.50;2.10;;;;;;;30.73;21.19;100677.70;102878;1257;138956;-61
2023/05/21 10:38:40;;;;;;;6.10;1.90;;;;;;;30.56;21.50;100676.50;104112;1259;94980;-61
2023/05/21 10:41:09;;;;;;;2.80;2.10;;;;;;;30.46;21.62;100671.48;102947;1258;109727;-62
2023/05/21 10:43:56;;;;;;;4.70;1.90;;;;;;;30.03;21.44;100669.18;102878;1259;137875;-66
2023/05/21 10:46:45;;;;;;;8.10;2.20;;;;;;;29.66;22.12;100667.05;104288;1258;109303;-72
2023/05/21 10:49:44;;;;;;;2.60;1.80;;;;;;;29.38;22.01;100666.74;103233;1258;137638;-68
2023/05/21 10:52:25;;;;;;;5.90;2.00;;;;;;;29.13;22.97;100668.45;102867;1261;96453;-68
2023/05/21 10:55:09;;;;;;;5.20;2.50;;;;;;;28.79;22.32;100670.85;102728;1262;137618;-66
2023/05/21 10:57:52;;;;;;;9.10;2.40;;;;;;;28.22;22.74;100677.30;102926;1259;96426;-67
2023/05/21 11:00:20;;;;;;;5.10;2.00;;;;;;;27.68;23.23;100675.66;103047;1259;137483;-67
2023/05/21 11:02:50;;;;;;;4.80;1.80;;;;;;;27.42;23.98;100666.42;102942;1257;108832;-66
2023/05/21 11:05:34;;;;;;;5.30;2.30;;;;;;;27.40;24.42;100665.70;103691;1258;96427;-66
2023/05/21 11:08:02;;;;;;;8.50;2.80;;;;;;;27.33;24.49;100664.05;104151;1258;107968;-66
2023/05/21 11:10:39;;;;;;;2.80;2.20;;;;;;;27.27;24.70;100662.84;103125;1259;96480;-67
2023/05/21 11:13:13;;;;;;;2.80;2.10;;;;;;;27.24;24.98;100658.68;103020;1259;137490;-68
2023/05/21 11:16:06;;;;;;;4.40;2.40;;;;;;;27.27;25.29;100651.21;103012;1259;108863;-68
2023/05/21 11:19:02;;;;;;;4.10;2.10;;;;;;;27.28;24.98;100658.66;102965;1259;137822;-66
2023/05/21 11:21:34;;;;;;;2.90;2.20;;;;;;;27.10;24.68;100655.86;103455;1258;107409;-66
2023/05/21 11:24:09;;;;;;;10.80;2.30;;;;;;;26.93;24.60;100651.37;102917;1263;137776;-64
2023/05/21 11:27:03;;;;;;;10.30;2.70;;;;;;;26.77;24.83;100647.42;103536;1259;110354;-65